sensor_id;sensor_type;location;lat;lon;timestamp;temperature;humidity
7686;DHT22;3885;51.474;-2.576;2023-04-15T00:01:42;2.80;99.90
7686;DHT22;3885;51.474;-2.576;2023-04-15T00:04:09;2.80;99.90
7686;DHT22;3885;51.474;-2.576;2023-04-15T00:06:37;2.80;99.90
7686;DHT22;3885;51.474;-2.576;2023-04-15T00:09:05;2.70;99.90
7686;DHT22;3885;51.474;-2.576;2023-04-15T00:11:32;2.80;99.90
7686;DHT22;3885;51.474;-2.576;2023-04-15T00:13:59;2.70;99.90
7686;DHT22;3885;51.474;-2.576;2023-04-15T00:16:26;2.60;99.90
7686;DHT22;3885;51.474;-2.576;2023-04-15T00:18:53;2.60;99.90
7686;DHT22;3885;51.474;-2.576;2023-04-15T00:21:20;2.60;99.90
7686;DHT22;3885;51.474;-2.576;2023-04-15T00:23:48;2.60;99.90
7686;DHT22;3885;51.474;-2.576;2023-04-15T00:26:18;2.60;99.90
7686;DHT22;3885;51.474;-2.576;2023-04-15T00:28:45;2.60;99.90
7686;DHT22;3885;51.474;-2.576;2023-04-15T00:31:12;2.60;99.90
7686;DHT22;3885;51.474;-2.576;2023-04-15T00:33:39;2.60;99.90
7686;DHT22;3885;51.474;-2.576;2023-04-15T00:36:06;2.60;99.90
7686;DHT22;3885;51.474;-2.576;2023-04-15T00:38:35;2.60;99.90
7686;DHT22;3885;51.474;-2.576;2023-04-15T00:41:04;2.70;99.90
7686;DHT22;3885;51.474;-2.576;2023-04-15T00:43:31;2.70;99.90
7686;DHT22;3885;51.474;-2.576;2023-04-15T00:45:58;2.70;99.90
7686;DHT22;3885;51.474;-2.576;2023-04-15T00:48:27;2.70;99.90
7686;DHT22;3885;51.474;-2.576;2023-04-15T00:50:54;2.80;99.90
7686;DHT22;3885;51.474;-2.576;2023-04-15T00:53:21;2.80;99.90
7686;DHT22;3885;51.474;-2.576;2023-04-15T00:55:49;2.80;99.90
7686;DHT22;3885;51.474;-2.576;2023-04-15T00:58:17;2.90;99.90
7686;DHT22;3885;51.474;-2.576;2023-04-15T01:00:44;2.80;99.90
7686;DHT22;3885;51.474;-2.576;2023-04-15T01:03:12;2.90;99.90
7686;DHT22;3885;51.474;-2.576;2023-04-15T01:05:39;2.80;99.90
7686;DHT22;3885;51.474;-2.576;2023-04-15T01:08:07;2.80;99.90
7686;DHT22;3885;51.474;-2.576;2023-04-15T01:10:34;2.80;99.90
7686;DHT22;3885;51.474;-2.576;2023-04-15T01:13:02;2.80;99.90
7686;DHT22;3885;51.474;-2.576;2023-04-15T01:15:31;2.80;99.90
7686;DHT22;3885;51.474;-2.576;2023-04-15T01:17:58;2.80;99.90
7686;DHT22;3885;51.474;-2.576;2023-04-15T01:20:25;2.90;99.90
7686;DHT22;3885;51.474;-2.576;2023-04-15T01:22:53;2.90;99.90
7686;DHT22;3885;51.474;-2.576;2023-04-15T01:25:29;2.90;99.90
7686;DHT22;3885;51.474;-2.576;2023-04-15T01:27:57;2.90;99.90
7686;DHT22;3885;51.474;-2.576;2023-04-15T01:30:24;3.00;99.90
7686;DHT22;3885;51.474;-2.576;2023-04-15T01:32:52;3.00;99.90
7686;DHT22;3885;51.474;-2.576;2023-04-15T01:35:19;3.00;99.90
7686;DHT22;3885;51.474;-2.576;2023-04-15T01:37:47;3.00;99.90
7686;DHT22;3885;51.474;-2.576;2023-04-15T01:40:15;2.80;99.90
7686;DHT22;3885;51.474;-2.576;2023-04-15T01:42:43;2.90;99.90
7686;DHT22;3885;51.474;-2.576;2023-04-15T01:45:10;2.90;99.90
7686;DHT22;3885;51.474;-2.576;2023-04-15T01:47:38;2.80;99.90
7686;DHT22;3885;51.474;-2.576;2023-04-15T01:50:05;2.70;99.90
7686;DHT22;3885;51.474;-2.576;2023-04-15T01:52:33;2.70;99.90
7686;DHT22;3885;51.474;-2.576;2023-04-15T01:54:59;2.70;99.90
7686;DHT22;3885;51.474;-2.576;2023-04-15T01:57:26;2.60;99.90
7686;DHT22;3885;51.474;-2.576;2023-04-15T01:59:55;2.60;99.90
7686;DHT22;3885;51.474;-2.576;2023-04-15T02:02:22;2.60;99.90
7686;DHT22;3885;51.474;-2.576;2023-04-15T02:04:48;2.70;99.90
7686;DHT22;3885;51.474;-2.576;2023-04-15T02:07:15;2.60;99.90
7686;DHT22;3885;51.474;-2.576;2023-04-15T02:09:43;2.60;99.90
7686;DHT22;3885;51.474;-2.576;2023-04-15T02:12:10;2.60;99.90
7686;DHT22;3885;51.474;-2.576;2023-04-15T02:14:38;2.60;99.90
7686;DHT22;3885;51.474;-2.576;2023-04-15T02:17:06;2.70;99.90
7686;DHT22;3885;51.474;-2.576;2023-04-15T02:19:33;2.60;99.90
7686;DHT22;3885;51.474;-2.576;2023-04-15T02:22:00;2.50;99.90
7686;DHT22;3885;51.474;-2.576;2023-04-15T02:24:29;2.50;99.90
7686;DHT22;3885;51.474;-2.576;2023-04-15T02:26:56;2.50;99.90
7686;DHT22;3885;51.474;-2.576;2023-04-15T02:29:23;2.50;99.90
7686;DHT22;3885;51.474;-2.576;2023-04-15T02:31:50;2.50;99.90
7686;DHT22;3885;51.474;-2.576;2023-04-15T02:34:19;2.40;99.90
7686;DHT22;3885;51.474;-2.576;2023-04-15T02:36:46;2.40;99.90
7686;DHT22;3885;51.474;-2.576;2023-04-15T02:39:14;2.40;99.90
7686;DHT22;3885;51.474;-2.576;2023-04-15T02:41:43;2.40;99.90
7686;DHT22;3885;51.474;-2.576;2023-04-15T02:44:12;2.30;99.90
7686;DHT22;3885;51.474;-2.576;2023-04-15T02:46:39;2.20;99.90
7686;DHT22;3885;51.474;-2.576;2023-04-15T02:49:06;2.20;99.90
7686;DHT22;3885;51.474;-2.576;2023-04-15T02:51:35;2.10;99.90
7686;DHT22;3885;51.474;-2.576;2023-04-15T02:54:02;2.10;99.90
7686;DHT22;3885;51.474;-2.576;2023-04-15T02:56:29;2.10;99.90
7686;DHT22;3885;51.474;-2.576;2023-04-15T02:58:56;2.10;99.90
7686;DHT22;3885;51.474;-2.576;2023-04-15T03:01:23;2.00;99.90
7686;DHT22;3885;51.474;-2.576;2023-04-15T03:03:50;2.00;99.90
7686;DHT22;3885;51.474;-2.576;2023-04-15T03:08:46;1.90;99.90
7686;DHT22;3885;51.474;-2.576;2023-04-15T03:11:14;1.90;99.90
7686;DHT22;3885;51.474;-2.576;2023-04-15T03:13:41;1.90;99.90
7686;DHT22;3885;51.474;-2.576;2023-04-15T03:16:09;1.80;99.90
7686;DHT22;3885;51.474;-2.576;2023-04-15T03:18:36;1.80;99.90
7686;DHT22;3885;51.474;-2.576;2023-04-15T03:21:03;1.80;99.90
7686;DHT22;3885;51.474;-2.576;2023-04-15T03:23:31;1.70;99.90
7686;DHT22;3885;51.474;-2.576;2023-04-15T03:26:00;1.70;99.90
7686;DHT22;3885;51.474;-2.576;2023-04-15T03:28:28;1.70;99.90
7686;DHT22;3885;51.474;-2.576;2023-04-15T03:30:54;1.70;99.90
7686;DHT22;3885;51.474;-2.576;2023-04-15T03:33:22;1.60;99.90
7686;DHT22;3885;51.474;-2.576;2023-04-15T03:35:49;1.60;99.90
7686;DHT22;3885;51.474;-2.576;2023-04-15T03:38:16;1.60;99.90
7686;DHT22;3885;51.474;-2.576;2023-04-15T03:40:44;1.60;99.90
7686;DHT22;3885;51.474;-2.576;2023-04-15T03:43:12;1.60;99.90
7686;DHT22;3885;51.474;-2.576;2023-04-15T03:45:39;1.50;99.90
7686;DHT22;3885;51.474;-2.576;2023-04-15T03:48:06;1.50;99.90
7686;DHT22;3885;51.474;-2.576;2023-04-15T03:50:33;1.50;99.90
7686;DHT22;3885;51.474;-2.576;2023-04-15T03:55:27;1.40;99.90
7686;DHT22;3885;51.474;-2.576;2023-04-15T03:57:54;1.40;99.90
7686;DHT22;3885;51.474;-2.576;2023-04-15T04:00:22;1.40;99.90
7686;DHT22;3885;51.474;-2.576;2023-04-15T04:02:49;1.30;99.90
7686;DHT22;3885;51.474;-2.576;2023-04-15T04:05:17;1.40;99.90
7686;DHT22;3885;51.474;-2.576;2023-04-15T04:07:43;1.30;99.90
7686;DHT22;3885;51.474;-2.576;2023-04-15T04:10:10;1.40;99.90
7686;DHT22;3885;51.474;-2.576;2023-04-15T04:12:37;1.30;99.90
7686;DHT22;3885;51.474;-2.576;2023-04-15T04:15:05;1.30;99.90
7686;DHT22;3885;51.474;-2.576;2023-04-15T04:17:34;1.30;99.90
7686;DHT22;3885;51.474;-2.576;2023-04-15T04:20:01;1.30;99.90
7686;DHT22;3885;51.474;-2.576;2023-04-15T04:22:28;1.20;99.90
7686;DHT22;3885;51.474;-2.576;2023-04-15T04:24:55;1.20;99.90
7686;DHT22;3885;51.474;-2.576;2023-04-15T04:27:23;1.20;99.90
7686;DHT22;3885;51.474;-2.576;2023-04-15T04:29:50;1.20;99.90
7686;DHT22;3885;51.474;-2.576;2023-04-15T04:32:17;1.10;99.90
7686;DHT22;3885;51.474;-2.576;2023-04-15T04:34:45;1.10;99.90
7686;DHT22;3885;51.474;-2.576;2023-04-15T04:37:13;1.10;99.90
7686;DHT22;3885;51.474;-2.576;2023-04-15T04:39:39;1.10;99.90
7686;DHT22;3885;51.474;-2.576;2023-04-15T04:42:06;1.10;99.90
7686;DHT22;3885;51.474;-2.576;2023-04-15T04:44:33;1.10;99.90
7686;DHT22;3885;51.474;-2.576;2023-04-15T04:47:00;1.00;99.90
7686;DHT22;3885;51.474;-2.576;2023-04-15T04:49:27;1.00;99.90
7686;DHT22;3885;51.474;-2.576;2023-04-15T04:51:56;1.00;99.90
7686;DHT22;3885;51.474;-2.576;2023-04-15T04:54:23;1.00;99.90
7686;DHT22;3885;51.474;-2.576;2023-04-15T04:56:50;1.00;99.90
7686;DHT22;3885;51.474;-2.576;2023-04-15T04:59:17;1.00;99.90
7686;DHT22;3885;51.474;-2.576;2023-04-15T05:01:44;1.00;99.90
7686;DHT22;3885;51.474;-2.576;2023-04-15T05:04:11;1.00;99.90
7686;DHT22;3885;51.474;-2.576;2023-04-15T05:06:38;1.00;99.90
7686;DHT22;3885;51.474;-2.576;2023-04-15T05:09:06;1.00;99.90
7686;DHT22;3885;51.474;-2.576;2023-04-15T05:11:33;1.10;99.90
7686;DHT22;3885;51.474;-2.576;2023-04-15T05:14:00;1.00;99.90
7686;DHT22;3885;51.474;-2.576;2023-04-15T05:16:27;1.00;99.90
7686;DHT22;3885;51.474;-2.576;2023-04-15T05:18:54;0.90;99.90
7686;DHT22;3885;51.474;-2.576;2023-04-15T05:21:21;1.00;99.90
7686;DHT22;3885;51.474;-2.576;2023-04-15T05:23:49;0.90;99.90
7686;DHT22;3885;51.474;-2.576;2023-04-15T05:26:17;1.00;99.90
7686;DHT22;3885;51.474;-2.576;2023-04-15T05:28:44;1.00;99.90
7686;DHT22;3885;51.474;-2.576;2023-04-15T05:31:12;1.00;99.90
7686;DHT22;3885;51.474;-2.576;2023-04-15T05:33:39;1.00;99.90
7686;DHT22;3885;51.474;-2.576;2023-04-15T05:36:06;1.00;99.90
7686;DHT22;3885;51.474;-2.576;2023-04-15T05:38:33;1.00;99.90
7686;DHT22;3885;51.474;-2.576;2023-04-15T05:41:00;1.00;99.90
7686;DHT22;3885;51.474;-2.576;2023-04-15T05:43:29;1.00;99.90
7686;DHT22;3885;51.474;-2.576;2023-04-15T05:45:56;1.00;99.90
7686;DHT22;3885;51.474;-2.576;2023-04-15T05:48:23;1.00;99.90
7686;DHT22;3885;51.474;-2.576;2023-04-15T05:50:49;1.00;99.90
7686;DHT22;3885;51.474;-2.576;2023-04-15T05:53:16;1.00;99.90
7686;DHT22;3885;51.474;-2.576;2023-04-15T05:55:43;1.00;99.90
7686;DHT22;3885;51.474;-2.576;2023-04-15T05:58:10;1.10;99.90
7686;DHT22;3885;51.474;-2.576;2023-04-15T06:00:38;1.10;99.90
7686;DHT22;3885;51.474;-2.576;2023-04-15T06:03:05;1.10;99.90
7686;DHT22;3885;51.474;-2.576;2023-04-15T06:05:32;1.20;99.90
7686;DHT22;3885;51.474;-2.576;2023-04-15T06:08:00;1.20;99.90
7686;DHT22;3885;51.474;-2.576;2023-04-15T06:12:54;1.20;99.90
7686;DHT22;3885;51.474;-2.576;2023-04-15T06:15:21;1.30;99.90
7686;DHT22;3885;51.474;-2.576;2023-04-15T06:17:49;1.40;99.90
7686;DHT22;3885;51.474;-2.576;2023-04-15T06:22:44;1.60;99.90
7686;DHT22;3885;51.474;-2.576;2023-04-15T06:27:38;1.90;99.90
7686;DHT22;3885;51.474;-2.576;2023-04-15T06:30:06;2.20;99.90
7686;DHT22;3885;51.474;-2.576;2023-04-15T06:32:34;2.30;99.90
7686;DHT22;3885;51.474;-2.576;2023-04-15T06:35:02;2.70;99.90
7686;DHT22;3885;51.474;-2.576;2023-04-15T06:37:29;3.00;99.90
7686;DHT22;3885;51.474;-2.576;2023-04-15T06:39:57;3.20;99.90
7686;DHT22;3885;51.474;-2.576;2023-04-15T06:44:51;3.60;99.90
7686;DHT22;3885;51.474;-2.576;2023-04-15T06:47:18;3.90;99.90
7686;DHT22;3885;51.474;-2.576;2023-04-15T06:49:45;4.00;99.90
7686;DHT22;3885;51.474;-2.576;2023-04-15T06:52:13;4.10;99.90
7686;DHT22;3885;51.474;-2.576;2023-04-15T06:54:41;4.20;99.90
7686;DHT22;3885;51.474;-2.576;2023-04-15T06:57:08;4.40;99.90
7686;DHT22;3885;51.474;-2.576;2023-04-15T06:59:35;4.60;99.90
7686;DHT22;3885;51.474;-2.576;2023-04-15T07:02:02;4.70;99.90
7686;DHT22;3885;51.474;-2.576;2023-04-15T07:04:29;4.80;99.90
7686;DHT22;3885;51.474;-2.576;2023-04-15T07:06:56;4.90;99.90
7686;DHT22;3885;51.474;-2.576;2023-04-15T07:11:51;5.10;99.90
7686;DHT22;3885;51.474;-2.576;2023-04-15T07:14:18;5.20;99.90
7686;DHT22;3885;51.474;-2.576;2023-04-15T07:16:45;5.20;99.90
7686;DHT22;3885;51.474;-2.576;2023-04-15T07:19:12;5.40;99.90
7686;DHT22;3885;51.474;-2.576;2023-04-15T07:21:39;5.50;99.90
7686;DHT22;3885;51.474;-2.576;2023-04-15T07:24:06;5.80;99.90
7686;DHT22;3885;51.474;-2.576;2023-04-15T07:26:36;6.00;99.90
7686;DHT22;3885;51.474;-2.576;2023-04-15T07:29:03;6.20;99.90
7686;DHT22;3885;51.474;-2.576;2023-04-15T07:31:30;6.40;99.90
7686;DHT22;3885;51.474;-2.576;2023-04-15T07:33:57;6.50;99.90
7686;DHT22;3885;51.474;-2.576;2023-04-15T07:36:24;6.70;99.90
7686;DHT22;3885;51.474;-2.576;2023-04-15T07:38:51;6.90;99.90
7686;DHT22;3885;51.474;-2.576;2023-04-15T07:41:18;7.10;99.90
7686;DHT22;3885;51.474;-2.576;2023-04-15T07:43:46;7.30;99.90
7686;DHT22;3885;51.474;-2.576;2023-04-15T07:46:14;7.50;99.90
7686;DHT22;3885;51.474;-2.576;2023-04-15T07:48:41;7.70;99.90
7686;DHT22;3885;51.474;-2.576;2023-04-15T07:51:08;7.80;99.90
7686;DHT22;3885;51.474;-2.576;2023-04-15T07:53:37;8.00;99.90
7686;DHT22;3885;51.474;-2.576;2023-04-15T07:56:04;8.20;99.90
7686;DHT22;3885;51.474;-2.576;2023-04-15T07:58:31;8.20;99.90
7686;DHT22;3885;51.474;-2.576;2023-04-15T08:01:00;7.90;99.90
7686;DHT22;3885;51.474;-2.576;2023-04-15T08:05:54;8.10;99.90
7686;DHT22;3885;51.474;-2.576;2023-04-15T08:08:22;8.30;99.90
7686;DHT22;3885;51.474;-2.576;2023-04-15T08:10:49;8.50;99.90
7686;DHT22;3885;51.474;-2.576;2023-04-15T08:13:16;8.60;99.90
7686;DHT22;3885;51.474;-2.576;2023-04-15T08:15:43;8.60;99.90
7686;DHT22;3885;51.474;-2.576;2023-04-15T08:18:11;8.80;99.90
7686;DHT22;3885;51.474;-2.576;2023-04-15T08:20:38;8.90;99.90
7686;DHT22;3885;51.474;-2.576;2023-04-15T08:25:32;9.20;99.90
7686;DHT22;3885;51.474;-2.576;2023-04-15T08:28:03;9.40;99.90
7686;DHT22;3885;51.474;-2.576;2023-04-15T08:32:59;9.60;99.90
7686;DHT22;3885;51.474;-2.576;2023-04-15T08:35:28;9.70;99.90
7686;DHT22;3885;51.474;-2.576;2023-04-15T08:37:55;9.80;99.90
7686;DHT22;3885;51.474;-2.576;2023-04-15T08:40:22;9.90;99.90
7686;DHT22;3885;51.474;-2.576;2023-04-15T08:42:54;10.00;99.90
7686;DHT22;3885;51.474;-2.576;2023-04-15T08:45:23;10.00;99.90
7686;DHT22;3885;51.474;-2.576;2023-04-15T08:47:54;10.00;99.90
7686;DHT22;3885;51.474;-2.576;2023-04-15T08:50:22;10.00;99.90
7686;DHT22;3885;51.474;-2.576;2023-04-15T08:52:54;10.00;99.90
7686;DHT22;3885;51.474;-2.576;2023-04-15T08:55:22;10.20;99.90
7686;DHT22;3885;51.474;-2.576;2023-04-15T08:57:50;10.40;99.90
7686;DHT22;3885;51.474;-2.576;2023-04-15T09:00:17;10.50;99.90
7686;DHT22;3885;51.474;-2.576;2023-04-15T09:02:44;10.60;99.90
7686;DHT22;3885;51.474;-2.576;2023-04-15T09:05:12;10.70;99.90
7686;DHT22;3885;51.474;-2.576;2023-04-15T09:07:38;10.60;99.90
7686;DHT22;3885;51.474;-2.576;2023-04-15T09:10:08;10.70;99.90
7686;DHT22;3885;51.474;-2.576;2023-04-15T09:12:35;10.80;99.90
7686;DHT22;3885;51.474;-2.576;2023-04-15T09:15:03;10.90;99.90
7686;DHT22;3885;51.474;-2.576;2023-04-15T09:17:32;10.90;99.90
7686;DHT22;3885;51.474;-2.576;2023-04-15T09:20:11;10.80;99.90
7686;DHT22;3885;51.474;-2.576;2023-04-15T09:22:39;10.80;99.90
7686;DHT22;3885;51.474;-2.576;2023-04-15T09:25:26;10.90;99.90
7686;DHT22;3885;51.474;-2.576;2023-04-15T09:27:55;10.90;99.90
7686;DHT22;3885;51.474;-2.576;2023-04-15T09:30:22;10.80;99.90
7686;DHT22;3885;51.474;-2.576;2023-04-15T09:32:50;10.70;99.90
7686;DHT22;3885;51.474;-2.576;2023-04-15T09:35:17;10.90;99.90
7686;DHT22;3885;51.474;-2.576;2023-04-15T09:37:44;11.10;99.90
7686;DHT22;3885;51.474;-2.576;2023-04-15T09:40:12;11.10;99.90
7686;DHT22;3885;51.474;-2.576;2023-04-15T09:42:55;11.10;99.90
7686;DHT22;3885;51.474;-2.576;2023-04-15T09:45:23;11.30;99.90
7686;DHT22;3885;51.474;-2.576;2023-04-15T09:47:50;11.40;99.90
7686;DHT22;3885;51.474;-2.576;2023-04-15T09:52:46;11.50;99.90
7686;DHT22;3885;51.474;-2.576;2023-04-15T09:55:14;11.50;99.90
7686;DHT22;3885;51.474;-2.576;2023-04-15T09:57:41;11.40;99.90
7686;DHT22;3885;51.474;-2.576;2023-04-15T10:00:11;11.40;99.90
7686;DHT22;3885;51.474;-2.576;2023-04-15T10:02:39;11.40;99.90
7686;DHT22;3885;51.474;-2.576;2023-04-15T10:05:07;11.50;99.90
7686;DHT22;3885;51.474;-2.576;2023-04-15T10:07:37;11.60;99.90
7686;DHT22;3885;51.474;-2.576;2023-04-15T10:10:06;11.70;99.90
7686;DHT22;3885;51.474;-2.576;2023-04-15T10:12:36;11.70;99.90
7686;DHT22;3885;51.474;-2.576;2023-04-15T10:15:05;11.60;99.90
7686;DHT22;3885;51.474;-2.576;2023-04-15T10:17:35;11.50;99.90
7686;DHT22;3885;51.474;-2.576;2023-04-15T10:20:03;11.40;99.90
7686;DHT22;3885;51.474;-2.576;2023-04-15T10:22:31;11.50;99.90
7686;DHT22;3885;51.474;-2.576;2023-04-15T10:24:58;11.60;99.90
7686;DHT22;3885;51.474;-2.576;2023-04-15T10:29:54;12.20;99.90
7686;DHT22;3885;51.474;-2.576;2023-04-15T10:32:23;12.30;99.90
7686;DHT22;3885;51.474;-2.576;2023-04-15T10:34:53;12.50;99.90
7686;DHT22;3885;51.474;-2.576;2023-04-15T10:37:31;12.60;99.90
7686;DHT22;3885;51.474;-2.576;2023-04-15T10:39:59;12.80;99.90
7686;DHT22;3885;51.474;-2.576;2023-04-15T10:42:33;13.00;99.90
7686;DHT22;3885;51.474;-2.576;2023-04-15T10:45:00;12.80;99.90
7686;DHT22;3885;51.474;-2.576;2023-04-15T10:47:27;12.80;99.90
7686;DHT22;3885;51.474;-2.576;2023-04-15T10:49:58;12.80;99.90
7686;DHT22;3885;51.474;-2.576;2023-04-15T10:52:27;12.60;99.90
7686;DHT22;3885;51.474;-2.576;2023-04-15T10:55:02;12.50;99.90
7686;DHT22;3885;51.474;-2.576;2023-04-15T10:57:34;12.40;99.90
7686;DHT22;3885;51.474;-2.576;2023-04-15T11:00:09;12.30;99.90
7686;DHT22;3885;51.474;-2.576;2023-04-15T11:02:41;12.50;99.90
7686;DHT22;3885;51.474;-2.576;2023-04-15T11:05:11;12.70;99.90
7686;DHT22;3885;51.474;-2.576;2023-04-15T11:13:25;13.20;99.90
7686;DHT22;3885;51.474;-2.576;2023-04-15T11:16:00;13.40;99.90
7686;DHT22;3885;51.474;-2.576;2023-04-15T11:20:59;13.50;99.90
7686;DHT22;3885;51.474;-2.576;2023-04-15T11:23:31;13.60;99.90
7686;DHT22;3885;51.474;-2.576;2023-04-15T11:25:59;13.30;99.90
7686;DHT22;3885;51.474;-2.576;2023-04-15T11:28:27;13.50;99.90
7686;DHT22;3885;51.474;-2.576;2023-04-15T11:30:55;13.20;99.90
7686;DHT22;3885;51.474;-2.576;2023-04-15T11:33:23;13.20;99.90
7686;DHT22;3885;51.474;-2.576;2023-04-15T11:35:52;13.10;99.90
7686;DHT22;3885;51.474;-2.576;2023-04-15T11:38:21;13.10;99.90
7686;DHT22;3885;51.474;-2.576;2023-04-15T11:40:49;13.40;99.90
7686;DHT22;3885;51.474;-2.576;2023-04-15T11:43:18;13.50;99.90
7686;DHT22;3885;51.474;-2.576;2023-04-15T11:45:51;13.90;99.90
7686;DHT22;3885;51.474;-2.576;2023-04-15T11:50:51;13.90;99.90
7686;DHT22;3885;51.474;-2.576;2023-04-15T11:53:18;13.50;99.90
7686;DHT22;3885;51.474;-2.576;2023-04-15T11:55:47;13.30;99.90
7686;DHT22;3885;51.474;-2.576;2023-04-15T11:58:16;13.00;99.90
7686;DHT22;3885;51.474;-2.576;2023-04-15T12:00:48;13.00;99.90
7686;DHT22;3885;51.474;-2.576;2023-04-15T12:03:20;13.20;99.90
7686;DHT22;3885;51.474;-2.576;2023-04-15T12:06:11;13.60;99.90
7686;DHT22;3885;51.474;-2.576;2023-04-15T12:14:05;13.60;99.90
7686;DHT22;3885;51.474;-2.576;2023-04-15T12:16:34;13.80;99.90
7686;DHT22;3885;51.474;-2.576;2023-04-15T12:19:07;13.90;99.90
7686;DHT22;3885;51.474;-2.576;2023-04-15T12:21:36;14.00;99.90
7686;DHT22;3885;51.474;-2.576;2023-04-15T12:24:05;13.90;99.90
7686;DHT22;3885;51.474;-2.576;2023-04-15T12:26:36;13.80;99.90
7686;DHT22;3885;51.474;-2.576;2023-04-15T12:29:05;13.80;99.90
7686;DHT22;3885;51.474;-2.576;2023-04-15T12:31:33;13.80;99.90
7686;DHT22;3885;51.474;-2.576;2023-04-15T12:34:01;13.80;99.90
7686;DHT22;3885;51.474;-2.576;2023-04-15T12:36:29;14.00;99.90
7686;DHT22;3885;51.474;-2.576;2023-04-15T12:39:01;14.30;99.90
7686;DHT22;3885;51.474;-2.576;2023-04-15T12:41:28;14.60;99.90
7686;DHT22;3885;51.474;-2.576;2023-04-15T12:43:56;14.80;99.90
7686;DHT22;3885;51.474;-2.576;2023-04-15T12:46:23;15.20;99.90
7686;DHT22;3885;51.474;-2.576;2023-04-15T12:48:51;15.40;99.90
7686;DHT22;3885;51.474;-2.576;2023-04-15T12:51:18;15.50;99.90
7686;DHT22;3885;51.474;-2.576;2023-04-15T12:56:14;15.70;99.90
7686;DHT22;3885;51.474;-2.576;2023-04-15T13:01:10;14.80;99.90
7686;DHT22;3885;51.474;-2.576;2023-04-15T13:06:04;13.90;99.90
7686;DHT22;3885;51.474;-2.576;2023-04-15T13:10:58;14.30;99.90
7686;DHT22;3885;51.474;-2.576;2023-04-15T13:13:25;14.40;99.90
7686;DHT22;3885;51.474;-2.576;2023-04-15T13:18:21;14.50;99.90
7686;DHT22;3885;51.474;-2.576;2023-04-15T13:20:49;14.30;99.90
7686;DHT22;3885;51.474;-2.576;2023-04-15T13:23:16;14.40;99.90
7686;DHT22;3885;51.474;-2.576;2023-04-15T13:25:43;14.50;99.90
7686;DHT22;3885;51.474;-2.576;2023-04-15T13:30:37;14.90;99.90
7686;DHT22;3885;51.474;-2.576;2023-04-15T13:33:04;15.10;99.90
7686;DHT22;3885;51.474;-2.576;2023-04-15T13:35:33;15.10;99.90
7686;DHT22;3885;51.474;-2.576;2023-04-15T13:38:00;15.00;99.90
7686;DHT22;3885;51.474;-2.576;2023-04-15T13:40:27;15.00;99.90
7686;DHT22;3885;51.474;-2.576;2023-04-15T13:45:22;14.90;99.90
7686;DHT22;3885;51.474;-2.576;2023-04-15T13:47:49;15.00;99.90
7686;DHT22;3885;51.474;-2.576;2023-04-15T13:50:16;15.00;99.90
7686;DHT22;3885;51.474;-2.576;2023-04-15T13:52:44;14.90;99.90
7686;DHT22;3885;51.474;-2.576;2023-04-15T13:57:38;14.90;99.90
7686;DHT22;3885;51.474;-2.576;2023-04-15T14:00:06;15.00;99.90
7686;DHT22;3885;51.474;-2.576;2023-04-15T14:05:01;15.20;99.90
7686;DHT22;3885;51.474;-2.576;2023-04-15T14:07:28;15.20;99.90
7686;DHT22;3885;51.474;-2.576;2023-04-15T14:09:56;15.00;99.90
7686;DHT22;3885;51.474;-2.576;2023-04-15T14:12:23;15.00;99.90
7686;DHT22;3885;51.474;-2.576;2023-04-15T14:14:50;14.90;99.90
7686;DHT22;3885;51.474;-2.576;2023-04-15T14:17:17;15.00;99.90
7686;DHT22;3885;51.474;-2.576;2023-04-15T14:19:44;15.10;99.90
7686;DHT22;3885;51.474;-2.576;2023-04-15T14:22:11;15.30;99.90
7686;DHT22;3885;51.474;-2.576;2023-04-15T14:24:38;15.60;99.90
7686;DHT22;3885;51.474;-2.576;2023-04-15T14:27:06;15.80;99.90
7686;DHT22;3885;51.474;-2.576;2023-04-15T14:29:35;16.00;99.90
7686;DHT22;3885;51.474;-2.576;2023-04-15T14:32:02;15.80;99.90
7686;DHT22;3885;51.474;-2.576;2023-04-15T14:34:29;15.50;99.90
7686;DHT22;3885;51.474;-2.576;2023-04-15T14:36:56;15.20;99.90
7686;DHT22;3885;51.474;-2.576;2023-04-15T14:39:23;15.50;99.90
7686;DHT22;3885;51.474;-2.576;2023-04-15T14:41:51;15.50;99.90
7686;DHT22;3885;51.474;-2.576;2023-04-15T14:46:47;15.60;99.90
7686;DHT22;3885;51.474;-2.576;2023-04-15T14:49:14;15.50;99.90
7686;DHT22;3885;51.474;-2.576;2023-04-15T14:51:41;15.50;99.90
7686;DHT22;3885;51.474;-2.576;2023-04-15T14:54:08;15.30;99.90
7686;DHT22;3885;51.474;-2.576;2023-04-15T14:56:35;15.20;99.90
7686;DHT22;3885;51.474;-2.576;2023-04-15T14:59:02;15.40;99.90
7686;DHT22;3885;51.474;-2.576;2023-04-15T15:01:30;15.30;99.90
7686;DHT22;3885;51.474;-2.576;2023-04-15T15:03:57;15.30;99.90
7686;DHT22;3885;51.474;-2.576;2023-04-15T15:06:24;15.20;99.90
7686;DHT22;3885;51.474;-2.576;2023-04-15T15:11:19;15.30;99.90
7686;DHT22;3885;51.474;-2.576;2023-04-15T15:13:46;15.20;99.90
7686;DHT22;3885;51.474;-2.576;2023-04-15T15:16:13;15.00;99.90
7686;DHT22;3885;51.474;-2.576;2023-04-15T15:18:41;14.90;99.90
7686;DHT22;3885;51.474;-2.576;2023-04-15T15:21:09;15.00;99.90
7686;DHT22;3885;51.474;-2.576;2023-04-15T15:23:36;14.60;99.90
7686;DHT22;3885;51.474;-2.576;2023-04-15T15:28:30;14.70;99.90
7686;DHT22;3885;51.474;-2.576;2023-04-15T15:30:57;14.80;99.90
7686;DHT22;3885;51.474;-2.576;2023-04-15T15:33:24;14.70;99.90
7686;DHT22;3885;51.474;-2.576;2023-04-15T15:35:52;14.50;99.90
7686;DHT22;3885;51.474;-2.576;2023-04-15T15:40:46;14.60;99.90
7686;DHT22;3885;51.474;-2.576;2023-04-15T15:43:13;14.60;99.90
7686;DHT22;3885;51.474;-2.576;2023-04-15T15:45:40;14.70;99.90
7686;DHT22;3885;51.474;-2.576;2023-04-15T15:48:07;14.80;99.90
7686;DHT22;3885;51.474;-2.576;2023-04-15T15:53:02;15.20;99.90
7686;DHT22;3885;51.474;-2.576;2023-04-15T15:57:56;14.80;99.90
7686;DHT22;3885;51.474;-2.576;2023-04-15T16:00:23;14.60;99.90
7686;DHT22;3885;51.474;-2.576;2023-04-15T16:02:54;14.50;99.90
7686;DHT22;3885;51.474;-2.576;2023-04-15T16:05:21;14.30;99.90
7686;DHT22;3885;51.474;-2.576;2023-04-15T16:07:48;14.50;99.90
7686;DHT22;3885;51.474;-2.576;2023-04-15T16:10:16;14.60;99.90
7686;DHT22;3885;51.474;-2.576;2023-04-15T16:12:43;14.70;99.90
7686;DHT22;3885;51.474;-2.576;2023-04-15T16:17:39;14.90;99.90
7686;DHT22;3885;51.474;-2.576;2023-04-15T16:20:06;15.00;99.90
7686;DHT22;3885;51.474;-2.576;2023-04-15T16:25:01;15.30;99.90
7686;DHT22;3885;51.474;-2.576;2023-04-15T16:27:29;15.40;99.90
7686;DHT22;3885;51.474;-2.576;2023-04-15T16:29:56;15.50;99.90
7686;DHT22;3885;51.474;-2.576;2023-04-15T16:32:23;15.70;99.90
7686;DHT22;3885;51.474;-2.576;2023-04-15T16:34:51;15.80;99.90
7686;DHT22;3885;51.474;-2.576;2023-04-15T16:37:19;15.90;99.90
7686;DHT22;3885;51.474;-2.576;2023-04-15T16:39:46;15.80;99.90
7686;DHT22;3885;51.474;-2.576;2023-04-15T16:44:42;15.70;99.90
7686;DHT22;3885;51.474;-2.576;2023-04-15T16:47:09;15.80;99.90
7686;DHT22;3885;51.474;-2.576;2023-04-15T16:49:36;15.80;99.90
7686;DHT22;3885;51.474;-2.576;2023-04-15T16:52:03;15.60;99.90
7686;DHT22;3885;51.474;-2.576;2023-04-15T16:54:30;15.50;99.90
7686;DHT22;3885;51.474;-2.576;2023-04-15T16:56:59;15.50;99.90
7686;DHT22;3885;51.474;-2.576;2023-04-15T16:59:26;15.60;99.90
7686;DHT22;3885;51.474;-2.576;2023-04-15T17:01:55;15.70;99.90
7686;DHT22;3885;51.474;-2.576;2023-04-15T17:04:22;15.80;99.90
7686;DHT22;3885;51.474;-2.576;2023-04-15T17:06:48;15.70;99.90
7686;DHT22;3885;51.474;-2.576;2023-04-15T17:09:15;15.60;99.90
7686;DHT22;3885;51.474;-2.576;2023-04-15T17:11:42;15.50;99.90
7686;DHT22;3885;51.474;-2.576;2023-04-15T17:14:10;15.50;99.90
7686;DHT22;3885;51.474;-2.576;2023-04-15T17:16:37;15.30;99.90
7686;DHT22;3885;51.474;-2.576;2023-04-15T17:19:06;15.30;99.90
7686;DHT22;3885;51.474;-2.576;2023-04-15T17:21:33;15.30;99.90
7686;DHT22;3885;51.474;-2.576;2023-04-15T17:24:00;15.40;99.90
7686;DHT22;3885;51.474;-2.576;2023-04-15T17:28:55;15.40;99.90
7686;DHT22;3885;51.474;-2.576;2023-04-15T17:31:22;15.40;99.90